Lauer, Kurt
United StatesManBorn 19612003 – 2017Runner id 37237
Events
95
94 race dates
Best pace
10.746
km/h · 2009
Best finish
14th
of 109 · 2010
Distance raced
5,254
km · splits not double-counted
Pace over time
km/h · higher is faster
Pace over time: 95 races from 2003 to 2017, ranging from 4.40 to 11.84 kilometres per hour, where higher is faster. A second, age-graded series is drawn above it; the gap between the two is the age credit.
- Actual pace
- Age-graded pace
Results
| Date | Event | Distance | Result | Pace km/h | Placing |
|---|---|---|---|---|---|
| 2003-03-15 | Chuckanut 50KUnited States | 50km | 6:24:08 h | 7.810 | 96/165 |
| 2004-03-13 | Chuckanut 50KUnited States | 50km | 5:49:56 h | 8.573 | 82/197 |
| 2004-07-10 | 50km | 5:57:27 h | 8.393 | 66/123 | |
| 2004-09-18 | Cle Elum Ridge 50kUnited States | 50km | 6:57:07 h | 7.192 | 31/97 |
| 2004-11-13 | 50km | 5:33:04 h | 9.007 | 16/34 | |
| 2005-01-08 | Bridle Trails Winter Running FestivalUnited States | 50km | 5:17:05 h | 9.461 | 24/34 |
| 2005-01-22 | Capitol Peak MegaFatAssUnited States | 34mi | 7:04:00 h | 7.743 | 26/36 |
| 2005-03-19 | Chuckanut 50KUnited States | 50km | 5:28:16 h | 9.139 | 64/210 |
| 2005-03-26 | 50km | 4:55:39 h | 10.147 | 7/38 | |
| 2005-09-19 | Cle Elum Ridge 50kUnited States | 50km | 6:38:10 h | 7.535 | 31/69 |
| 2006-01-21 | Capitol Peak MegaFatAssUnited States | 34mi | 7:57:18 h | 6.878 | 17/17 |
| 2006-03-18 | Chuckanut 50KUnited States | 50km | 6:15:20 h | 7.993 | 144/242 |
| 2006-05-13 | 50mi | 9:55:59 h | 8.101 | 92/237 | |
| 2006-10-07 | Baker Lake 50K Ultra Trail RunUnited States | 50km | 5:58:29 h | 8.369 | 45/113 |
| 2007-02-10 | 50km | 7:58:00 h | 6.276 | 33/35 | |
| 2007-03-17 | Chuckanut 50KUnited States | 50km | 6:23:26 h | 7.824 | 157/260 |
| 2007-05-19 | Watershed Preserve 12 Hr Trail RaceUnited States | 12h | 60.559 km | 5.047 | 36/56 |
| 2007-08-09 | McKenzie River 50 km Trail RunUnited States | 50km | 5:33:14 h | 9.003 | 56/151 |
| 2007-10-06 | Endurance Challenge - Washington D.C. Trail 50 MilesUnited States | 50mi | 13:00:09 h | 6.189 | 23/25 |
| 2008-01-26 | Pigtails Run 50KUnited States | 50km | 4:54:05 h | 10.201 | 13/49 |
| 2008-03-15 | Chuckanut 50KUnited States | 50km | 6:07:15 h | 8.169 | 141/294 |
| 2008-04-05 | 50mi | 9:24:50 h | 8.548 | 161/467 | |
| 2008-05-03 | 100km | 13:53:06 h | 7.202 | 197/282 | |
| 2008-05-17 | Watershed Preserve 12 Hr Trail RaceUnited States | 12h | 81.336 km | 6.778 | 22/53 |
| 2008-06-21 | 100mi | 27:43:21 h | 5.805 | 50/80 | |
| 2008-08-23 | Bulldog 50k Ultra RunUnited States | 50km | 6:26:12 h | 7.768 | 63/139 |
| 2008-09-06 | 50km | 5:44:26 h | 8.710 | 13/36 | |
| 2009-01-24 | Pigtails Run 50KUnited States | 50km | 5:07:00 h | 9.772 | 16/49 |
| 2009-02-07 | Orcas Island 50kUnited States | 50km | 7:49:17 h | 6.393 | 88/106 |
| 2009-03-14 | 50km | 5:33:44 h | 8.989 | 181/458 | |
| 2009-03-21 | Chuckanut 50KUnited States | 50km | 5:58:07 h | 8.377 | 124/270 |
| 2009-04-19 | 50mi | 8:15:43 h | 9.739 | 17/48 | |
| 2009-05-16 | Watershed Preserve 12 Hr Trail RaceUnited States | 12h | 69.201 km | 5.767 | 34/66 |
| 2009-06-06 | Blanchard Mountain Trail UltraUnited States | 50km | 7:42:00 h | 6.494 | 8/17 |
| 2009-07-18 | 55km | 7:10:26 h | 7.667 | 177/313 | |
| 2009-09-06 | 50km | 5:53:43 h | 8.481 | 8/16 | |
| 2009-09-20 | Big DabrowskiUnited States | 50km | 7:56:00 h | 6.303 | 10/21 |
| 2009-10-03 | Baker Lake 50K Ultra Trail RunUnited States | 50km | 6:34:00 h | 7.614 | 30/65 |
| 2009-10-31 | 50km | 4:39:10 h | 10.746 | 21/146 | |
| 2010-01-23 | Pigtails Run 50KUnited States | 50km | 5:31:36 h | 9.047 | 44/80 |
| 2010-02-06 | 50km | 7:35:00 h | 6.593 | 98/123 | |
| 2010-02-10 | Woolley Trail Runs 50kUnited States | 50km | 5:34:40 h | 8.964 | 14/18 |
| 2010-03-07 | Lord Hill Trail RunUnited States | 50km | 6:37:30 h | 7.547 | 9/21 |
| 2010-03-20 | 50km | 6:08:43 h | 8.136 | 192/287 | |
| 2010-03-27 | 50mi | 9:47:52 h | 8.213 | 14/109 | |
| 2010-04-11 | 50mi | 9:15:54 h | 8.685 | 26/46 | |
| 2010-04-18 | Spokane River Run 50KUnited States | 50km | 6:21:23 h | 7.866 | 57/70 |
| 2010-05-08 | 50km | 8:36:20 h | 5.810 | 35/39 | |
| 2010-06-18 | 50mi | 14:20:41 h | 5.610 | 116/131 | |
| 2010-09-04 | 50km | 7:30:28 h | 6.660 | 25/48 | |
| 2010-10-30 | 12h | 52.802 km | 4.400 | 19/25 | |
| 2011-01-22 | Pigtails Run 50KUnited States | 50km | 5:18:09 h | 9.430 | 36/84 |
| 2011-02-05 | 50km | 8:05:30 h | 6.179 | 89/129 | |
| 2011-03-19 | 50km | 6:13:09 h | 8.040 | 176/298 | |
| 2011-03-26 | 50km | 6:24:50 h | 7.796 | 32/55 | |
| 2011-04-17 | Spokane River Run 50KUnited States | 50km | 5:35:48 h | 8.934 | 24/62 |
| 2011-05-14 | 12h | 53.060 km | 4.422 | 50/68 | |
| 2011-05-14 | 50km | 6:56:41 h | 7.200 | 133/201 | |
| 2011-07-30 | 79.1km | 12:17:33 h | 6.435 | 1019/1219 | |
| 2011-09-24 | 50km | 6:41:21 h | 7.475 | 15/17 | |
| 2011-10-01 | 50km | 6:49:03 h | 7.334 | 59/122 | |
| 2011-10-15 | 50km | 8:19:43 h | 6.003 | 35/43 | |
| 2011-12-10 | 50km | 6:37:50 h | 7.541 | 44/63 | |
| 2012-01-28 | Lake Youngs Nuts RunUnited States | 50km | 5:29:31 h | 9.104 | 30/57 |
| 2012-02-04 | 50km | 7:39:19 h | 6.531 | 122/171 | |
| 2012-02-26 | Lord Hill Trail RunUnited States | 50km | 7:12:31 h | 6.936 | 34/55 |
| 2012-03-17 | 50km | 6:38:59 h | 7.519 | 389/550 | |
| 2012-03-25 | 50km | 5:52:35 h | 8.509 | 92/211 | |
| 2012-04-07 | 45km | 6:29:23 h | 6.934 | 36/71 | |
| 2012-05-19 | 12h | 60.551 km | 5.046 | 42/60 | |
| 2012-05-26 | 50km | 5:29:30 h | 9.105 | 27/80 | |
| 2012-09-15 | 50km | 7:54:31 h | 6.322 | 30/40 | |
| 2012-10-28 | 50km | 7:02:18 h | 7.104 | 45/59 | |
| 2012-12-08 | 50km | 6:28:43 h | 7.718 | 48/86 | |
| 2013-02-02 | 50km | 7:44:55 h | 6.453 | 161/215 | |
| 2013-02-16 | 55km | 7:11:54 h | 7.641 | 222/299 | |
| 2013-03-16 | 50km | 6:44:01 h | 7.425 | 256/346 | |
| 2013-04-21 | 50km | 8:40:53 h | 5.759 | 81/94 | |
| 2013-06-08 | 50km | 5:51:33 h | 8.534 | 29/48 | |
| 2013-09-07 | Volcanic 50United States | 50km | 10:12:04 h | 4.901 | 95/118 |
| 2013-10-13 | 50km | 8:31:17 h | 5.868 | 44/61 | |
| 2013-10-27 | Cougar Mountain Trail RunUnited States | 50km | 7:22:14 h | 6.784 | 16/25 |
| 2013-12-14 | 50km | 6:44:35 h | 7.415 | 121/183 | |
| 2014-02-01 | 50km | 7:58:50 h | 6.265 | 151/200 | |
| 2014-02-23 | 50km | 7:28:30 h | 6.689 | 37/60 | |
| 2014-03-15 | 50km | 6:54:14 h | 7.242 | 278/348 | |
| 2014-04-27 | 50km | 5:09:44 h | 9.686 | 28/72 | |
| 2014-05-26 | 50km | 6:30:25 h | 7.684 | 74/96 | |
| 2014-06-21 | 33.5mi | 5:38:07 h | 9.567 | 5/18 | |
| 2014-12-14 | 50km | 7:14:42 h | 6.901 | 189/229 | |
| 2015-02-07 | 50km | 8:38:02 h | 5.791 | 215/241 | |
| 2015-03-21 | 50km | 6:51:00 h | 7.299 | 254/328 | |
| 2015-04-25 | 55km | 7:40:54 h | 7.160 | 34/48 | |
| 2016-03-19 | 50km | 7:16:24 h | 6.874 | 252/295 | |
| 2017-03-18 | 50km | 7:49:25 h | 6.391 | 380/385 |